createdAt,value
2019-02-04T00:00:17.722Z,54.50
2019-02-04T00:02:45.370Z,54.50
2019-02-04T00:05:12.878Z,54.50
2019-02-04T00:07:40.342Z,54.50
2019-02-04T00:10:09.680Z,54.50
2019-02-04T00:12:37.145Z,54.40
2019-02-04T00:15:05.945Z,54.40
2019-02-04T00:17:33.684Z,54.40
2019-02-04T00:20:01.148Z,54.40
2019-02-04T00:22:28.622Z,54.50
2019-02-04T00:24:56.098Z,54.40
2019-02-04T00:27:23.566Z,54.40
2019-02-04T00:29:51.032Z,54.50
2019-02-04T00:32:18.611Z,54.40
2019-02-04T00:34:46.455Z,54.40
2019-02-04T00:37:13.917Z,54.50
2019-02-04T00:39:41.390Z,54.40
2019-02-04T00:42:08.858Z,54.40
2019-02-04T00:44:36.329Z,54.40
2019-02-04T00:47:03.798Z,54.40
2019-02-04T00:49:31.267Z,54.40
2019-02-04T00:51:59.114Z,54.40
2019-02-04T00:54:26.595Z,54.40
2019-02-04T00:56:54.062Z,54.40
2019-02-04T00:59:21.546Z,54.40
2019-02-04T01:01:49.069Z,54.50
2019-02-04T01:04:16.542Z,54.40
2019-02-04T01:06:44.035Z,54.40
2019-02-04T01:09:11.889Z,54.40
2019-02-04T01:11:39.442Z,54.40
2019-02-04T01:14:06.909Z,54.30
2019-02-04T01:16:34.382Z,54.10
2019-02-04T01:19:01.850Z,54.00
2019-02-04T01:21:29.315Z,53.80
2019-02-04T01:23:56.791Z,53.80
2019-02-04T01:26:24.260Z,53.80
2019-02-04T01:28:51.731Z,53.80
2019-02-04T01:31:19.205Z,53.90
2019-02-04T01:33:46.674Z,54.00
2019-02-04T01:36:14.142Z,54.00
2019-02-04T01:38:41.614Z,54.00
2019-02-04T01:41:09.431Z,54.10
2019-02-04T01:43:36.891Z,54.10
2019-02-04T01:46:04.379Z,54.00
2019-02-04T01:48:31.840Z,54.00
2019-02-04T01:50:59.315Z,53.90
2019-02-04T01:53:26.775Z,53.80
2019-02-04T01:55:54.252Z,53.80
2019-02-04T01:58:21.990Z,53.80
2019-02-04T02:00:49.452Z,53.80
2019-02-04T02:03:16.917Z,53.70
2019-02-04T02:05:44.391Z,53.80
2019-02-04T02:08:12.204Z,53.80
2019-02-04T02:10:39.656Z,53.80
2019-02-04T02:13:07.229Z,53.90
2019-02-04T02:15:34.693Z,54.50
2019-02-04T02:18:02.157Z,53.90
2019-02-04T02:20:29.623Z,53.90
2019-02-04T02:22:57.193Z,53.80
2019-02-04T02:25:24.725Z,53.80
2019-02-04T02:27:52.215Z,53.70
2019-02-04T02:30:23.871Z,53.70
2019-02-04T02:32:51.341Z,53.60
2019-02-04T02:35:18.860Z,53.50
2019-02-04T02:37:46.320Z,53.50
2019-02-04T02:40:15.411Z,53.40
2019-02-04T02:42:42.885Z,53.40
2019-02-04T02:45:10.337Z,53.30
2019-02-04T02:47:38.822Z,53.30
2019-02-04T02:50:10.013Z,53.40
2019-02-04T02:52:37.266Z,53.40
2019-02-04T02:55:06.007Z,53.50
2019-02-04T02:57:33.737Z,53.40
2019-02-04T03:00:01.211Z,53.30
2019-02-04T03:02:29.151Z,53.30
2019-02-04T03:04:56.620Z,53.20
2019-02-04T03:07:24.089Z,53.20
2019-02-04T03:09:51.554Z,53.10
2019-02-04T03:12:19.017Z,53.10
2019-02-04T03:14:46.487Z,52.90
2019-02-04T03:17:13.990Z,53.00
2019-02-04T03:19:41.722Z,53.00
2019-02-04T03:22:09.199Z,53.20
2019-02-04T03:24:36.660Z,53.20
2019-02-04T03:27:04.147Z,53.30
2019-02-04T03:29:31.610Z,53.30
2019-02-04T03:31:59.420Z,53.40
2019-02-04T03:34:26.882Z,53.30
2019-02-04T03:36:54.345Z,53.10
2019-02-04T03:39:21.809Z,53.10
2019-02-04T03:41:49.284Z,53.10
2019-02-04T03:44:16.755Z,53.10
2019-02-04T03:46:44.205Z,53.00
2019-02-04T03:49:11.678Z,52.90
2019-02-04T03:51:39.421Z,53.00
2019-02-04T03:54:06.894Z,52.90
2019-02-04T03:56:34.358Z,53.10
2019-02-04T03:59:01.832Z,53.20
2019-02-04T04:01:29.471Z,53.20
2019-02-04T04:03:56.953Z,53.10
2019-02-04T04:06:24.465Z,53.50
2019-02-04T04:08:52.362Z,52.90
2019-02-04T04:11:19.838Z,52.80
2019-02-04T04:13:47.319Z,52.80
2019-02-04T04:16:14.782Z,52.60
2019-02-04T04:18:42.260Z,52.70
2019-02-04T04:21:09.731Z,52.70
2019-02-04T04:23:37.250Z,52.80
2019-02-04T04:26:04.946Z,52.80
2019-02-04T04:28:32.422Z,52.90
2019-02-04T04:30:59.888Z,53.10
2019-02-04T04:33:27.355Z,53.00
2019-02-04T04:35:54.849Z,53.70
2019-02-04T04:38:22.319Z,53.10
2019-02-04T04:40:49.790Z,52.90
2019-02-04T04:43:17.262Z,53.10
2019-02-04T04:45:44.733Z,53.10
2019-02-04T04:48:12.220Z,53.10
2019-02-04T04:50:39.690Z,53.00
2019-02-04T04:53:07.147Z,52.90
2019-02-04T04:55:34.627Z,52.80
2019-02-04T04:58:02.099Z,52.90
2019-02-04T05:00:30.368Z,52.80
2019-02-04T05:02:57.819Z,52.70
2019-02-04T05:05:25.281Z,52.60
2019-02-04T05:07:52.741Z,52.80
2019-02-04T05:10:20.740Z,52.80
2019-02-04T05:12:48.202Z,52.80
2019-02-04T05:15:22.970Z,53.20
2019-02-04T05:17:52.446Z,52.50
2019-02-04T05:20:19.616Z,52.50
2019-02-04T05:22:47.080Z,52.60
2019-02-04T05:25:14.913Z,52.60
2019-02-04T05:27:42.374Z,52.70
2019-02-04T05:30:11.685Z,52.60
2019-02-04T05:32:39.159Z,52.60
2019-02-04T05:35:06.735Z,52.60
2019-02-04T05:37:34.271Z,52.60
2019-02-04T05:40:01.774Z,52.80
2019-02-04T05:42:29.299Z,52.70
2019-02-04T05:44:56.763Z,52.80
2019-02-04T05:47:24.713Z,52.60
2019-02-04T05:49:52.177Z,53.20
2019-02-04T05:52:19.931Z,52.50
2019-02-04T05:54:47.399Z,52.50
2019-02-04T05:57:15.945Z,52.60
2019-02-04T05:59:43.418Z,52.40
2019-02-04T06:02:10.966Z,52.50
2019-02-04T06:04:38.436Z,52.40
2019-02-04T06:07:05.989Z,52.30
2019-02-04T06:09:33.558Z,52.20
2019-02-04T06:12:01.033Z,52.80
2019-02-04T06:14:28.518Z,52.90
2019-02-04T06:16:56.240Z,51.90
2019-02-04T06:19:24.075Z,51.90
2019-02-04T06:21:51.552Z,51.90
2019-02-04T06:24:19.052Z,51.80
2019-02-04T06:26:46.621Z,51.90
2019-02-04T06:29:14.181Z,51.80
2019-02-04T06:31:41.635Z,51.80
2019-02-04T06:34:09.126Z,51.70
2019-02-04T06:36:37.104Z,51.70
2019-02-04T06:39:06.436Z,51.90
2019-02-04T06:41:33.906Z,51.50
2019-02-04T06:44:01.385Z,51.50
2019-02-04T06:46:28.837Z,51.30
2019-02-04T06:48:56.310Z,51.20
2019-02-04T06:51:23.777Z,51.30
2019-02-04T06:53:51.589Z,51.10
2019-02-04T06:56:19.393Z,51.70
2019-02-04T06:58:46.960Z,50.90
2019-02-04T07:01:14.420Z,51.00
2019-02-04T07:03:41.888Z,50.90
2019-02-04T07:06:09.360Z,50.80
2019-02-04T07:08:36.900Z,50.80
2019-02-04T07:11:04.540Z,51.10
2019-02-04T07:13:32.011Z,50.80
2019-02-04T07:15:59.475Z,50.80
2019-02-04T07:18:26.951Z,50.60
2019-02-04T07:20:54.766Z,50.40
2019-02-04T07:23:22.230Z,50.30
2019-02-04T07:25:49.685Z,50.40
2019-02-04T07:28:17.437Z,50.20
2019-02-04T07:30:44.892Z,50.50
2019-02-04T07:33:12.365Z,50.30
2019-02-04T07:35:39.834Z,50.50
2019-02-04T07:38:07.325Z,50.40
2019-02-04T07:40:34.914Z,50.30
2019-02-04T07:43:02.383Z,50.20
2019-02-04T07:45:30.587Z,50.20
2019-02-04T07:47:58.057Z,50.10
2019-02-04T07:50:25.588Z,50.10
2019-02-04T07:52:53.055Z,50.10
2019-02-04T07:55:20.526Z,50.10
2019-02-04T07:57:47.991Z,50.10
2019-02-04T08:00:23.242Z,50.10
2019-02-04T08:02:50.888Z,50.00
2019-02-04T08:05:18.366Z,50.10
2019-02-04T08:07:45.892Z,50.00
2019-02-04T08:10:14.996Z,50.00
2019-02-04T08:12:42.481Z,49.80
2019-02-04T08:15:17.514Z,49.70
2019-02-04T08:17:44.981Z,49.80
2019-02-04T08:20:12.455Z,49.70
2019-02-04T08:22:39.922Z,49.70
2019-02-04T08:25:09.357Z,49.70
2019-02-04T08:27:36.817Z,49.80
2019-02-04T08:30:08.869Z,49.80
2019-02-04T08:32:36.342Z,49.70
2019-02-04T08:35:05.173Z,49.70
2019-02-04T08:37:32.654Z,49.60
2019-02-04T08:40:00.338Z,49.50
2019-02-04T08:42:27.880Z,49.50
2019-02-04T08:44:55.357Z,49.40
2019-02-04T08:47:24.147Z,49.40
2019-02-04T08:49:58.469Z,49.40
2019-02-04T08:52:21.079Z,49.20
2019-02-04T08:54:48.618Z,49.30
2019-02-04T08:57:16.089Z,49.20
2019-02-04T08:59:43.711Z,49.10
2019-02-04T09:02:11.246Z,49.10
2019-02-04T09:04:38.723Z,49.10
2019-02-04T09:07:06.578Z,49.10
2019-02-04T09:09:34.207Z,49.10
2019-02-04T09:12:01.762Z,49.10
2019-02-04T09:14:29.298Z,49.00
2019-02-04T09:16:56.762Z,49.00
2019-02-04T09:19:24.236Z,49.00
2019-02-04T09:21:51.704Z,49.00
2019-02-04T09:24:19.667Z,48.90
2019-02-04T09:26:47.125Z,49.50
2019-02-04T09:29:14.621Z,48.90
2019-02-04T09:31:42.088Z,49.00
2019-02-04T09:34:09.578Z,49.00
2019-02-04T09:36:37.037Z,49.00
2019-02-04T09:39:06.342Z,49.00
2019-02-04T09:41:33.981Z,49.00
2019-02-04T09:44:01.457Z,49.00
2019-02-04T09:46:28.927Z,49.00
2019-02-04T09:48:56.417Z,49.60
2019-02-04T09:51:23.890Z,48.90
2019-02-04T09:53:51.364Z,49.00
2019-02-04T09:56:18.843Z,49.00
2019-02-04T09:58:46.378Z,48.90
2019-02-04T10:01:13.867Z,48.90
2019-02-04T10:03:41.409Z,48.90
2019-02-04T10:06:08.898Z,48.90
2019-02-04T10:08:36.372Z,48.90
2019-02-04T10:11:03.839Z,48.90
2019-02-04T10:13:31.315Z,48.90
2019-02-04T10:15:58.805Z,49.10
2019-02-04T10:18:26.350Z,49.00
2019-02-04T10:20:53.835Z,49.00
2019-02-04T10:23:21.413Z,48.90
2019-02-04T10:25:48.978Z,49.00
2019-02-04T10:28:16.522Z,49.50
2019-02-04T10:30:44.207Z,48.90
2019-02-04T10:33:12.077Z,48.90
2019-02-04T10:35:39.627Z,48.90
2019-02-04T10:38:07.303Z,48.90
2019-02-04T10:40:34.883Z,48.90
2019-02-04T10:43:02.430Z,48.90
2019-02-04T10:45:29.940Z,48.90
2019-02-04T10:47:57.429Z,49.00
2019-02-04T10:50:29.432Z,48.90
2019-02-04T10:52:56.955Z,49.00
2019-02-04T10:55:24.475Z,48.90
2019-02-04T10:57:51.990Z,49.00
2019-02-04T11:00:20.480Z,48.90
2019-02-04T11:02:48.014Z,48.90
2019-02-04T11:05:16.860Z,48.80
2019-02-04T11:07:44.370Z,48.80
2019-02-04T11:10:13.053Z,48.80
2019-02-04T11:12:40.624Z,48.80
2019-02-04T11:15:09.972Z,48.80
2019-02-04T11:17:37.582Z,48.80
2019-02-04T11:20:06.735Z,48.80
2019-02-04T11:22:34.676Z,48.90
2019-02-04T11:25:02.204Z,48.90
2019-02-04T11:27:29.744Z,48.80
2019-02-04T11:29:57.304Z,48.70
2019-02-04T11:32:24.801Z,48.70
2019-02-04T11:34:52.265Z,48.70
2019-02-04T11:37:19.837Z,48.70
2019-02-04T11:39:47.563Z,48.70
2019-02-04T11:42:15.520Z,49.10
2019-02-04T11:44:43.029Z,48.70
2019-02-04T11:47:10.523Z,48.80
2019-02-04T11:49:38.234Z,48.80
2019-02-04T11:52:05.808Z,48.80
2019-02-04T11:54:33.305Z,48.70
2019-02-04T11:57:00.782Z,48.70
2019-02-04T11:59:28.247Z,48.60
2019-02-04T12:01:55.726Z,48.50
2019-02-04T12:04:23.193Z,48.30
2019-02-04T12:06:50.670Z,48.40
2019-02-04T12:09:18.190Z,48.40
2019-02-04T12:11:45.686Z,48.30
2019-02-04T12:14:13.267Z,48.20
2019-02-04T12:16:40.735Z,48.30
2019-02-04T12:19:08.202Z,48.30
2019-02-04T12:21:35.675Z,48.30
2019-02-04T12:24:03.151Z,48.20
2019-02-04T12:26:30.623Z,48.20
2019-02-04T12:28:58.095Z,48.10
2019-02-04T12:31:25.663Z,48.20
2019-02-04T12:33:53.132Z,48.10
2019-02-04T12:36:20.593Z,48.10
2019-02-04T12:38:48.052Z,48.20
2019-02-04T12:41:15.513Z,48.20
2019-02-04T12:43:42.986Z,48.30
2019-02-04T12:46:10.463Z,48.30
2019-02-04T12:48:38.199Z,48.20
2019-02-04T12:51:05.675Z,48.30
2019-02-04T12:53:33.208Z,48.20
2019-02-04T12:56:00.665Z,48.20
2019-02-04T12:58:28.151Z,48.10
2019-02-04T13:00:55.665Z,47.80
2019-02-04T13:03:23.146Z,47.50
2019-02-04T13:05:50.976Z,47.40
2019-02-04T13:08:18.449Z,47.30
2019-02-04T13:10:46.010Z,47.40
2019-02-04T13:13:14.718Z,47.40
2019-02-04T13:15:42.177Z,47.30
2019-02-04T13:18:09.716Z,47.30
2019-02-04T13:20:37.312Z,47.40
2019-02-04T13:23:04.858Z,47.40
2019-02-04T13:25:32.321Z,47.50
2019-02-04T13:27:59.785Z,47.50
2019-02-04T13:30:27.831Z,47.50
2019-02-04T13:32:55.290Z,47.40
2019-02-04T13:35:22.863Z,47.50
2019-02-04T13:37:50.809Z,47.40
2019-02-04T13:40:19.788Z,47.40
2019-02-04T13:42:47.325Z,47.40
2019-02-04T13:45:16.075Z,47.50
2019-02-04T13:47:43.533Z,47.50
2019-02-04T13:50:11.983Z,47.40
2019-02-04T13:52:39.436Z,47.40
2019-02-04T13:55:11.830Z,47.50
2019-02-04T13:57:39.313Z,47.40
2019-02-04T14:00:09.246Z,47.60
2019-02-04T14:02:36.773Z,48.20
2019-02-04T14:05:04.750Z,47.50
2019-02-04T14:07:32.218Z,47.40
2019-02-04T14:09:59.995Z,47.50
2019-02-04T14:12:27.522Z,47.50
2019-02-04T14:14:54.999Z,47.30
2019-02-04T14:17:24.407Z,47.50
2019-02-04T14:19:51.674Z,47.40
2019-02-04T14:22:19.139Z,47.50
2019-02-04T14:24:47.121Z,47.50
2019-02-04T14:27:14.634Z,47.40
2019-02-04T14:29:42.103Z,47.40
2019-02-04T14:32:09.568Z,47.50
2019-02-04T14:34:37.029Z,47.50
2019-02-04T14:37:04.510Z,47.30
2019-02-04T14:39:31.988Z,47.20
2019-02-04T14:41:59.736Z,47.30
2019-02-04T14:44:27.470Z,47.20
2019-02-04T14:46:56.570Z,47.30
2019-02-04T14:49:25.670Z,47.20
2019-02-04T14:52:21.055Z,47.30
2019-02-04T14:55:00.094Z,47.20
2019-02-04T14:57:32.742Z,47.30
2019-02-04T15:00:01.836Z,47.20
2019-02-04T15:02:31.322Z,47.20
2019-02-04T15:05:00.430Z,47.20
2019-02-04T15:07:29.521Z,47.20
2019-02-04T15:09:58.621Z,47.20
2019-02-04T15:12:27.726Z,47.20
2019-02-04T15:14:56.899Z,47.20
2019-02-04T15:17:25.182Z,47.20
2019-02-04T15:19:54.419Z,47.20
2019-02-04T15:22:33.659Z,47.20
2019-02-04T15:25:21.246Z,47.10
2019-02-04T15:28:02.304Z,47.10
2019-02-04T15:30:31.389Z,47.20
2019-02-04T15:33:12.664Z,47.40
2019-02-04T15:35:47.854Z,47.40
2019-02-04T15:38:22.642Z,47.40
2019-02-04T15:40:51.745Z,47.40
2019-02-04T15:43:36.038Z,47.30
2019-02-04T15:46:05.149Z,47.90
2019-02-04T15:48:34.250Z,47.20
2019-02-04T15:51:03.344Z,47.20
2019-02-04T15:53:30.813Z,47.20
2019-02-04T15:55:58.946Z,47.20
2019-02-04T15:58:26.797Z,47.10
2019-02-04T16:00:54.269Z,47.20
2019-02-04T16:03:21.746Z,47.30
2019-02-04T16:05:49.311Z,47.30
2019-02-04T16:08:16.790Z,47.20
2019-02-04T16:10:44.266Z,47.20
2019-02-04T16:13:11.734Z,47.20
2019-02-04T16:15:42.276Z,47.00
2019-02-04T16:18:08.961Z,47.10
2019-02-04T16:20:36.527Z,47.10
2019-02-04T16:23:04.226Z,47.00
2019-02-04T16:25:31.770Z,47.00
2019-02-04T16:27:59.245Z,47.10
2019-02-04T16:30:26.751Z,47.10
2019-02-04T16:32:54.699Z,47.10
2019-02-04T16:35:22.186Z,47.10
2019-02-04T16:37:49.674Z,46.90
2019-02-04T16:40:18.779Z,46.90
2019-02-04T16:42:46.265Z,46.90
2019-02-04T16:45:15.353Z,46.90
2019-02-04T16:47:42.838Z,47.00
2019-02-04T16:50:12.575Z,47.00
2019-02-04T16:52:40.038Z,46.90
2019-02-04T16:55:07.897Z,46.90
2019-02-04T16:57:35.726Z,46.90
2019-02-04T17:00:05.159Z,47.00
2019-02-04T17:02:32.699Z,47.10
2019-02-04T17:05:00.654Z,47.10
2019-02-04T17:07:28.123Z,46.90
2019-02-04T17:09:55.594Z,46.90
2019-02-04T17:12:23.130Z,46.70
2019-02-04T17:14:50.702Z,46.70
2019-02-04T17:17:18.173Z,46.70
2019-02-04T17:19:45.754Z,46.70
2019-02-04T17:22:13.216Z,46.70
2019-02-04T17:24:40.682Z,46.80
2019-02-04T17:27:09.473Z,46.70
2019-02-04T17:29:37.037Z,46.90
2019-02-04T17:32:04.559Z,46.80
2019-02-04T17:34:32.032Z,46.80
2019-02-04T17:36:59.498Z,47.00
2019-02-04T17:39:27.348Z,47.00
2019-02-04T17:41:54.901Z,47.00
2019-02-04T17:44:22.365Z,47.10
2019-02-04T17:46:51.180Z,47.20
2019-02-04T17:49:18.680Z,47.10
2019-02-04T17:51:46.258Z,47.10
2019-02-04T17:54:13.758Z,47.00
2019-02-04T17:56:41.609Z,46.90
2019-02-04T17:59:09.142Z,47.00
2019-02-04T18:01:36.881Z,47.00
2019-02-04T18:04:04.474Z,46.90
2019-02-04T18:06:31.945Z,47.60
2019-02-04T18:08:59.507Z,47.00
2019-02-04T18:11:26.976Z,47.20
2019-02-04T18:13:54.830Z,47.10
2019-02-04T18:16:22.318Z,47.00
2019-02-04T18:18:49.950Z,46.90
2019-02-04T18:21:17.430Z,46.80
2019-02-04T18:23:46.191Z,46.70
2019-02-04T18:26:13.924Z,46.70
2019-02-04T18:28:41.662Z,46.60
2019-02-04T18:31:09.134Z,46.60
2019-02-04T18:33:36.881Z,46.60
2019-02-04T18:36:04.375Z,46.60
2019-02-04T18:38:31.919Z,46.60
2019-02-04T18:40:59.855Z,46.60
2019-02-04T18:43:27.413Z,46.60
2019-02-04T18:45:54.954Z,46.70
2019-02-04T18:48:22.806Z,46.60
2019-02-04T18:50:50.352Z,46.60
2019-02-04T18:53:17.856Z,46.50
2019-02-04T18:55:45.367Z,46.60
2019-02-04T18:58:12.837Z,46.50
2019-02-04T19:00:40.304Z,46.50
2019-02-04T19:03:16.806Z,46.50
2019-02-04T19:05:36.961Z,46.50
2019-02-04T19:08:04.713Z,46.50
2019-02-04T19:10:32.185Z,46.60
2019-02-04T19:12:59.655Z,46.80
2019-02-04T19:15:27.801Z,46.60
2019-02-04T19:17:56.813Z,46.60
2019-02-04T19:20:24.300Z,46.50
2019-02-04T19:22:51.767Z,46.50
2019-02-04T19:25:20.857Z,46.50
2019-02-04T19:27:48.653Z,46.50
2019-02-04T19:30:23.486Z,46.50
2019-02-04T19:32:50.955Z,46.40
2019-02-04T19:35:18.462Z,46.30
2019-02-04T19:37:45.902Z,46.30
2019-02-04T19:40:14.610Z,46.30
2019-02-04T19:42:42.060Z,46.30
2019-02-04T19:45:16.617Z,46.40
2019-02-04T19:47:44.085Z,46.30
2019-02-04T19:50:13.358Z,46.30
2019-02-04T19:52:40.822Z,46.40
2019-02-04T19:55:11.069Z,46.40
2019-02-04T19:57:38.711Z,46.40
2019-02-04T20:00:07.973Z,46.30
2019-02-04T20:02:35.466Z,46.30
2019-02-04T20:05:04.369Z,46.20
2019-02-04T20:07:31.836Z,46.20
2019-02-04T20:09:59.311Z,46.30
2019-02-04T20:12:26.766Z,46.30
2019-02-04T20:14:56.203Z,46.40
2019-02-04T20:17:23.518Z,46.40
2019-02-04T20:19:51.001Z,46.40
2019-02-04T20:22:18.850Z,47.00
2019-02-04T20:24:46.322Z,46.40
2019-02-04T20:27:13.808Z,46.40
2019-02-04T20:29:41.283Z,46.40
2019-02-04T20:32:08.749Z,46.40
2019-02-04T20:34:36.214Z,46.40
2019-02-04T20:37:03.711Z,46.40
2019-02-04T20:39:31.551Z,46.20
2019-02-04T20:41:59.034Z,46.30
2019-02-04T20:44:26.507Z,46.20
2019-02-04T20:46:53.967Z,46.30
2019-02-04T20:49:21.442Z,46.20
2019-02-04T20:51:48.907Z,46.30
2019-02-04T20:54:20.676Z,46.90
2019-02-04T20:56:45.576Z,46.30
2019-02-04T20:59:13.046Z,46.20
2019-02-04T21:01:40.519Z,46.20
2019-02-04T21:04:08.001Z,46.10
2019-02-04T21:06:35.477Z,46.10
2019-02-04T21:09:04.449Z,46.20
2019-02-04T21:11:31.940Z,46.10
2019-02-04T21:13:59.408Z,46.20
2019-02-04T21:16:26.878Z,46.10
2019-02-04T21:18:54.374Z,46.20
2019-02-04T21:21:21.849Z,46.20
2019-02-04T21:23:49.322Z,46.20
2019-02-04T21:26:16.846Z,46.20
2019-02-04T21:28:44.298Z,46.10
2019-02-04T21:31:11.817Z,46.10
2019-02-04T21:33:39.282Z,45.50
2019-02-04T21:36:13.877Z,46.00
2019-02-04T21:38:41.438Z,46.00
2019-02-04T21:41:09.018Z,46.00
2019-02-04T21:43:36.482Z,46.00
2019-02-04T21:46:03.963Z,46.30
2019-02-04T21:48:31.784Z,46.10
2019-02-04T21:50:59.265Z,46.20
2019-02-04T21:53:27.529Z,46.10
2019-02-04T21:55:55.005Z,46.10
2019-02-04T21:58:22.466Z,46.10
2019-02-04T22:00:49.935Z,46.10
2019-02-04T22:03:17.397Z,46.20
2019-02-04T22:05:46.823Z,46.20
2019-02-04T22:08:14.353Z,46.20
2019-02-04T22:10:41.984Z,46.10
2019-02-04T22:13:09.457Z,46.10
2019-02-04T22:15:37.297Z,46.10
2019-02-04T22:18:04.796Z,46.10
2019-02-04T22:20:32.734Z,46.00
2019-02-04T22:23:00.192Z,46.00
2019-02-04T22:25:27.657Z,46.00
2019-02-04T22:27:55.140Z,46.10
2019-02-04T22:30:24.236Z,46.10
2019-02-04T22:32:51.710Z,46.10
2019-02-04T22:35:19.190Z,46.10
2019-02-04T22:37:46.662Z,46.10
2019-02-04T22:40:18.422Z,46.80
2019-02-04T22:42:45.901Z,46.00
2019-02-04T22:45:14.835Z,46.00
2019-02-04T22:47:42.305Z,46.00
2019-02-04T22:50:16.540Z,46.10
2019-02-04T22:52:44.013Z,46.10
2019-02-04T22:55:11.767Z,46.00
2019-02-04T22:57:39.233Z,46.10
2019-02-04T23:00:14.281Z,46.20
2019-02-04T23:02:41.754Z,46.10
2019-02-04T23:05:09.209Z,46.10
2019-02-04T23:07:36.704Z,46.10
2019-02-04T23:10:05.537Z,46.10
2019-02-04T23:12:33.094Z,46.00
2019-02-04T23:15:00.557Z,46.00
2019-02-04T23:17:28.026Z,46.00
2019-02-04T23:19:55.492Z,45.90
2019-02-04T23:22:22.957Z,45.80
2019-02-04T23:24:50.421Z,45.80
2019-02-04T23:27:18.257Z,45.90
2019-02-04T23:29:45.725Z,45.90
2019-02-04T23:32:13.190Z,45.90
2019-02-04T23:34:40.653Z,45.90
2019-02-04T23:37:08.116Z,45.90
2019-02-04T23:39:35.594Z,45.90
2019-02-04T23:42:03.067Z,45.90
2019-02-04T23:44:30.913Z,45.90
2019-02-04T23:46:58.380Z,45.90
2019-02-04T23:49:25.854Z,45.90
2019-02-04T23:51:53.317Z,45.90
2019-02-04T23:54:20.959Z,45.90
2019-02-04T23:56:48.419Z,45.90
2019-02-04T23:59:15.892Z,45.90
